Aeroporto :
LOGIN :

Iscrizione | Disclaimer

   EN    FR    IT 

 










Sommario :    VFR   VFR Marginale   IFR   IFR Intensivo   IFR Molto Intensivo
Visibilità : 
Base nubi : 
>= 8 km
>= 3000ft
5 / 8 km
1000 / 3000 ft
1500m / 5 km
500 / 1000 ft
800 / 1500m
200 / 500 ft
< 800m
< 200 ft
Simboli :   Temporali  Nebbia  Neve Forte  Precipitazioni Forti  Vento > 20 kt
SIGMETs :   Varie  Temporali  Ghiacco  Turbolenza  Onda orograficha  Ceneri Vulcaniche






- Altitudine del aeroporto : 609 ft
- Codice IATA : BJZ


LEBZ - Badajoz

ULTIMO METAR :
  • 050700Z AUTO 24006KT 9999 FEW009 15/12 Q1015

METARs OBSOLETI :
  • 050600Z AUTO 22004KT CAVOK 13/11 Q1014
  • 050500Z AUTO 23004KT CAVOK 12/10 Q1014

TAF AMD TAF LEBZ
Valido dal 05 a 06 ore il 06 a 06 ore UTC


050659Z 0506/0606 25009KT CAVOK TX29/0516Z TN12/0506Z



MetMap, La meteo Aeronautica in un colpo d'occhio ! - Copyright ORBIFLY Dicembre 2007 - Disclaimer

ORBIFLY MET'MAP TEAM :

Programmazione e sviluppo : Alexandra Zaïnal
Concezione : Baudouin d'Aumeries
Aiuto per la programmazione : Marc-Olivier Méhu
Supporto tecnico e logistico : Manuel Goepfert
Aiuto per la traduzione : Arnaldo La Scala

Contatto : metmap@orbifly.com




FONTI E CREDITI :

   NOAA